Wan Hai 501 — S6AS7 — position and weather

sailwx.info

Track history (hours):
 
Tides and Currents Weather Stations Pressure Air Temp Water Temp Dewpoint Dewpoint Depression Visibility Wind Speed Wind Dir Waves Ship Positions

Wan Hai 501

Last reported at 2015-Jul-30 00:31 UTC. Time now 2015-Aug-02 14:21 UTC.
Position N 01°15' E 104°08'.

Length 268 m; draft 9.7 m.

Type: Cargo ship. MMSI: 563382000.

Date/timePositionNaut miles runAvg speedWind from/ knotsBaromVisibWave heightAir tempDewpointWater temp
2015-Jul-30 00:31N 01°15' E 104°08'1414.4
2015-Jul-29 23:34N 01°12' E 103°55'9 9.0
2015-Jul-29 22:33N 01°15' E 103°46'2 1.6
2015-Jul-29 21:31N 01°17' E 103°46'0 0.0
2015-Jul-29 20:31N 01°17' E 103°46'0 0.0
2015-Jul-29 19:31N 01°17' E 103°46'0 0.0
2015-Jul-29 18:28N 01°17' E 103°46'0 0.0
2015-Jul-29 17:31N 01°17' E 103°46'0 0.0
2015-Jul-29 16:31N 01°17' E 103°46'0 0.0
2015-Jul-29 15:19N 01°17' E 103°46'0 0.0
2015-Jul-29 14:19N 01°17' E 103°46'0 0.0
2015-Jul-29 13:31N 01°17' E 103°46'0 0.0
2015-Jul-29 12:28N 01°17' E 103°46'0 0.0
2015-Jul-29 11:28N 01°17' E 103°46'0 0.1
2015-Jul-29 10:25N 01°17' E 103°46'0 0.1
2015-Jul-29 09:31N 01°17' E 103°46'0 0.0
2015-Jul-29 08:31N 01°17' E 103°46'0 0.1
2015-Jul-29 07:33N 01°17' E 103°46'2 1.6
2015-Jul-29 06:33N 01°15' E 103°46'10 9.3
2015-Jul-29 05:26N 01°13' E 103°36'114 9.5
2015-Jul-28 17:28N 02°09' E 101°57'1213.3
2015-Jul-28 16:33N 02°17' E 101°48'2713.7
2015-Jul-28 14:33N 02°34' E 101°26'20 9.8
2015-Jul-28 12:32N 02°48' E 101°12'0 0.0
2015-Jul-28 10:29N 02°48' E 101°12'0 0.1
2015-Jul-28 08:32N 02°48' E 101°12'0 0.0
2015-Jul-28 07:29N 02°48' E 101°12'0 0.1
2015-Jul-28 05:32N 02°48' E 101°12'0 0.2
2015-Jul-28 03:33N 02°48' E 101°12'17 8.4
2015-Jul-28 01:32N 03°02' E 101°21'0 0.0
2015-Jul-27 23:29N 03°02' E 101°21'0 0.0
2015-Jul-27 21:32N 03°02' E 101°21'0 0.0
2015-Jul-27 19:32N 03°02' E 101°21'0 0.0
2015-Jul-27 15:32N 03°02' E 101°21'0 0.0
2015-Jul-27 13:32N 03°02' E 101°21'5 2.3
2015-Jul-27 11:33N 03°06' E 101°19'1010.3
2015-Jul-27 10:33N 03°14' E 101°12'5 1.7
2015-Jul-27 07:31N 03°18' E 101°09'0 0.1
2015-Jul-27 05:31N 03°18' E 101°09'0 0.1
2015-Jul-27 03:22N 03°18' E 101°09'0 0.1
2015-Jul-27 01:31N 03°18' E 101°09'0 0.0
2015-Jul-26 23:31N 03°18' E 101°09'0 0.0
2015-Jul-26 21:28N 03°18' E 101°09'0 0.0
2015-Jul-26 20:31N 03°18' E 101°09'0 0.0
2015-Jul-26 18:28N 03°18' E 101°09'0 0.1
2015-Jul-26 16:31N 03°18' E 101°09'9 4.7
2015-Jul-26 14:33N 03°22' E 101°00'1615.5
2015-Jul-26 13:33N 03°30' E 100°47'3215.4
2015-Jul-26 11:30N 03°46' E 100°20'  
Track history (hours):
 
Tides and Currents Weather Stations Pressure Air Temp Water Temp Dewpoint Dewpoint Depression Visibility Wind Speed Wind Dir Waves Ship Positions

Wan Hai 501

Last reported at 2015-Jul-30 00:31 UTC. Time now 2015-Aug-02 14:21 UTC.
Position N 01°15' E 104°08'.

Length 268 m; draft 9.7 m.

Type: Cargo ship. MMSI: 563382000.

Date/timePositionNaut miles runAvg speedWind from/ knotsBaromVisibWave heightAir tempDewpointWater temp
2015-Jul-30 00:31N 01°15' E 104°08'1414.4
2015-Jul-29 23:34N 01°12' E 103°55'9 9.0
2015-Jul-29 22:33N 01°15' E 103°46'2 1.6
2015-Jul-29 21:31N 01°17' E 103°46'0 0.0
2015-Jul-29 20:31N 01°17' E 103°46'0 0.0
2015-Jul-29 19:31N 01°17' E 103°46'0 0.0
2015-Jul-29 18:28N 01°17' E 103°46'0 0.0
2015-Jul-29 17:31N 01°17' E 103°46'0 0.0
2015-Jul-29 16:31N 01°17' E 103°46'0 0.0
2015-Jul-29 15:19N 01°17' E 103°46'0 0.0
2015-Jul-29 14:19N 01°17' E 103°46'0 0.0
2015-Jul-29 13:31N 01°17' E 103°46'0 0.0
2015-Jul-29 12:28N 01°17' E 103°46'0 0.0
2015-Jul-29 11:28N 01°17' E 103°46'0 0.1
2015-Jul-29 10:25N 01°17' E 103°46'0 0.1
2015-Jul-29 09:31N 01°17' E 103°46'0 0.0
2015-Jul-29 08:31N 01°17' E 103°46'0 0.1
2015-Jul-29 07:33N 01°17' E 103°46'2 1.6
2015-Jul-29 06:33N 01°15' E 103°46'10 9.3
2015-Jul-29 05:26N 01°13' E 103°36'114 9.5
2015-Jul-28 17:28N 02°09' E 101°57'1213.3
2015-Jul-28 16:33N 02°17' E 101°48'2713.7
2015-Jul-28 14:33N 02°34' E 101°26'20 9.8
2015-Jul-28 12:32N 02°48' E 101°12'0 0.0
2015-Jul-28 10:29N 02°48' E 101°12'0 0.1
2015-Jul-28 08:32N 02°48' E 101°12'0 0.0
2015-Jul-28 07:29N 02°48' E 101°12'0 0.1
2015-Jul-28 05:32N 02°48' E 101°12'0 0.2
2015-Jul-28 03:33N 02°48' E 101°12'17 8.4
2015-Jul-28 01:32N 03°02' E 101°21'0 0.0
2015-Jul-27 23:29N 03°02' E 101°21'0 0.0
2015-Jul-27 21:32N 03°02' E 101°21'0 0.0
2015-Jul-27 19:32N 03°02' E 101°21'0 0.0
2015-Jul-27 15:32N 03°02' E 101°21'0 0.0
2015-Jul-27 13:32N 03°02' E 101°21'5 2.3
2015-Jul-27 11:33N 03°06' E 101°19'1010.3
2015-Jul-27 10:33N 03°14' E 101°12'5 1.7
2015-Jul-27 07:31N 03°18' E 101°09'0 0.1
2015-Jul-27 05:31N 03°18' E 101°09'0 0.1
2015-Jul-27 03:22N 03°18' E 101°09'0 0.1
2015-Jul-27 01:31N 03°18' E 101°09'0 0.0
2015-Jul-26 23:31N 03°18' E 101°09'0 0.0
2015-Jul-26 21:28N 03°18' E 101°09'0 0.0
2015-Jul-26 20:31N 03°18' E 101°09'0 0.0
2015-Jul-26 18:28N 03°18' E 101°09'0 0.1
2015-Jul-26 16:31N 03°18' E 101°09'9 4.7
2015-Jul-26 14:33N 03°22' E 101°00'1615.5
2015-Jul-26 13:33N 03°30' E 100°47'3215.4
2015-Jul-26 11:30N 03°46' E 100°20'  

Dump ship's entire track history